Time;durP1;ratioP1;P1;durP2;ratioP2;P2;SDS_P1;SDS_P2;PMS_P1;PMS_P2;Temp;Humidity;BMP_temperature;BMP_pressure;BME280_temperature;BME280_humidity;BME280_pressure;Samples;Min_cycle;Max_cycle;Signal;HPM_P1;HPM_P2
2022/09/16 00:00:57;;;;;;;1.70;0.20;;;15.10;99.90;;;;;;10328789;28;20062;-63
2022/09/16 00:05:59;;;;;;;2.22;0.40;;;15.10;99.90;;;;;;10330347;28;20042;-60
2022/09/16 00:11:02;;;;;;;1.63;0.20;;;15.10;99.90;;;;;;10323757;28;21814;-59
2022/09/16 00:16:11;;;;;;;2.53;0.30;;;15.10;99.90;;;;;;10327666;28;20042;-62
2022/09/16 00:21:13;;;;;;;2.03;0.20;;;15.00;99.90;;;;;;10331104;28;20057;-62
2022/09/16 00:26:16;;;;;;;4.13;0.30;;;15.00;99.90;;;;;;10341440;28;20081;-61
2022/09/16 00:31:17;;;;;;;2.15;0.30;;;15.00;99.90;;;;;;10325925;28;20461;-61
2022/09/16 00:36:19;;;;;;;3.25;0.10;;;14.90;99.90;;;;;;10331068;28;20056;-60
2022/09/16 00:41:27;;;;;;;2.55;0.17;;;14.90;99.90;;;;;;10327256;28;20469;-60
2022/09/16 00:46:42;;;;;;;1.10;0.20;;;14.90;99.90;;;;;;10323784;28;20085;-63
2022/09/16 00:51:47;;;;;;;1.40;0.52;;;14.80;99.90;;;;;;10327224;28;20050;-61
2022/09/16 00:56:52;;;;;;;2.75;0.10;;;14.80;99.90;;;;;;10329122;28;20057;-61
2022/09/16 01:01:57;;;;;;;2.20;0.20;;;14.80;99.90;;;;;;10334874;28;20060;-60
2022/09/16 01:06:59;;;;;;;2.35;0.38;;;14.80;99.90;;;;;;10327352;28;20060;-60
2022/09/16 01:12:01;;;;;;;1.85;0.17;;;14.70;99.90;;;;;;10330600;28;20147;-60
2022/09/16 01:17:16;;;;;;;1.15;0.10;;;14.70;99.90;;;;;;10327666;28;20077;-60
2022/09/16 01:22:21;;;;;;;2.83;0.20;;;14.60;99.90;;;;;;10342201;28;20070;-61
2022/09/16 01:27:31;;;;;;;0.45;0.30;;;14.50;99.90;;;;;;10340861;28;20382;-61
2022/09/16 01:32:57;;;;;;;4.65;0.20;;;14.50;99.90;;;;;;10341712;28;20171;-61
2022/09/16 01:38:14;;;;;;;2.00;0.20;;;14.40;99.90;;;;;;10336298;28;20262;-60
2022/09/16 01:43:37;;;;;;;1.27;0.30;;;14.40;99.90;;;;;;10335016;28;20145;-61
2022/09/16 01:48:49;;;;;;;3.13;0.13;;;14.30;99.90;;;;;;10342602;28;20072;-60
2022/09/16 01:54:11;;;;;;;3.58;0.20;;;14.40;99.90;;;;;;10337898;28;20050;-61
2022/09/16 01:59:20;;;;;;;3.08;0.25;;;14.30;99.90;;;;;;10335801;28;20080;-60
2022/09/16 02:04:33;;;;;;;1.60;0.20;;;14.30;99.90;;;;;;10330639;28;20080;-62
2022/09/16 02:09:40;;;;;;;3.00;0.20;;;14.30;99.90;;;;;;10334680;28;20056;-61
2022/09/16 02:14:45;;;;;;;0.82;0.25;;;14.30;99.90;;;;;;10336746;28;20050;-61
2022/09/16 02:19:54;;;;;;;3.33;0.22;;;14.30;99.90;;;;;;10336633;28;20144;-61
2022/09/16 02:24:59;;;;;;;1.85;0.10;;;14.30;99.90;;;;;;10335150;28;20129;-61
2022/09/16 02:30:15;;;;;;;2.05;0.20;;;14.30;99.90;;;;;;10343247;28;20129;-61
2022/09/16 02:35:20;;;;;;;0.63;0.13;;;14.20;99.90;;;;;;10330882;28;20563;-60
2022/09/16 02:40:31;;;;;;;2.13;0.20;;;14.20;99.90;;;;;;10325528;28;20140;-63
2022/09/16 02:45:45;;;;;;;5.38;0.20;;;14.20;99.90;;;;;;10332104;28;20104;-61
2022/09/16 02:50:57;;;;;;;4.95;0.32;;;14.20;99.90;;;;;;10333229;28;20625;-62
2022/09/16 02:56:05;;;;;;;1.50;0.10;;;14.20;99.90;;;;;;10341386;28;20714;-61
2022/09/16 03:01:07;;;;;;;1.90;0.30;;;14.20;99.90;;;;;;10337859;28;20052;-61
2022/09/16 03:06:08;;;;;;;0.17;0.10;;;14.10;99.90;;;;;;10326888;28;20064;-62
2022/09/16 03:11:53;;;;;;;2.22;0.10;;;14.10;99.90;;;;;;10332888;28;20141;-62
2022/09/16 03:17:11;;;;;;;0.30;0.15;;;14.10;99.90;;;;;;10332855;28;20120;-61
2022/09/16 03:22:25;;;;;;;3.03;0.38;;;14.00;99.90;;;;;;10341184;28;20112;-61
2022/09/16 03:27:46;;;;;;;2.13;0.20;;;14.00;99.90;;;;;;10333425;28;20129;-60
2022/09/16 03:33:01;;;;;;;2.55;0.20;;;14.00;99.90;;;;;;10337674;28;20451;-60
2022/09/16 03:38:05;;;;;;;2.85;0.10;;;14.00;99.90;;;;;;10329315;28;20045;-60
2022/09/16 03:43:11;;;;;;;4.68;0.28;;;13.90;99.90;;;;;;10328233;28;20081;-60
2022/09/16 03:48:13;;;;;;;3.20;0.30;;;14.00;99.90;;;;;;10327866;28;20475;-61
2022/09/16 03:53:15;;;;;;;4.40;0.20;;;13.90;99.90;;;;;;10335528;28;20486;-61
2022/09/16 03:58:17;;;;;;;3.03;0.38;;;13.90;99.90;;;;;;10344650;28;20627;-60
2022/09/16 04:03:18;;;;;;;1.58;0.30;;;14.00;99.90;;;;;;10327676;28;20474;-61
2022/09/16 04:08:20;;;;;;;1.00;0.22;;;13.90;99.90;;;;;;10331498;28;20132;-61
2022/09/16 04:13:22;;;;;;;2.92;0.30;;;13.90;99.90;;;;;;10336499;28;20123;-61
2022/09/16 04:18:25;;;;;;;2.65;0.30;;;13.80;99.90;;;;;;10328644;28;20088;-61
2022/09/16 04:23:28;;;;;;;1.42;0.20;;;13.80;99.90;;;;;;10333253;28;20056;-61
2022/09/16 04:28:31;;;;;;;0.70;0.30;;;13.70;99.90;;;;;;10330662;28;20046;-62
2022/09/16 04:33:34;;;;;;;1.05;0.30;;;13.70;99.90;;;;;;10333081;28;20121;-62
2022/09/16 04:38:36;;;;;;;1.75;0.30;;;13.60;99.90;;;;;;10334557;28;20041;-61
2022/09/16 04:43:38;;;;;;;0.40;0.20;;;13.60;99.90;;;;;;10328670;28;20731;-61
2022/09/16 04:48:40;;;;;;;0.63;0.20;;;13.60;99.90;;;;;;10321633;28;20049;-62
2022/09/16 04:53:42;;;;;;;2.55;0.20;;;13.50;99.90;;;;;;10314602;28;20073;-63
2022/09/16 04:58:47;;;;;;;2.92;0.20;;;13.40;99.90;;;;;;10328901;28;20119;-61
2022/09/16 05:03:51;;;;;;;3.35;0.38;;;13.40;99.90;;;;;;10320905;28;20607;-63
2022/09/16 05:08:54;;;;;;;5.13;0.50;;;13.40;99.90;;;;;;10322272;28;20136;-66
2022/09/16 05:14:04;;;;;;;0.75;0.30;;;13.30;99.90;;;;;;10321734;28;20057;-65
2022/09/16 05:19:06;;;;;;;2.22;0.30;;;13.30;99.90;;;;;;10324495;28;20046;-65
2022/09/16 05:24:09;;;;;;;1.15;0.22;;;13.30;99.90;;;;;;10328088;28;20536;-66
2022/09/16 05:29:14;;;;;;;1.17;0.50;;;13.30;99.90;;;;;;10342628;28;20093;-65
2022/09/16 05:34:22;;;;;;;3.33;0.40;;;13.30;99.90;;;;;;10327666;28;20055;-66
2022/09/16 05:39:23;;;;;;;;;;;13.30;99.90;;;;;;10326611;28;20081;-64
2022/09/16 05:44:28;;;;;;;1.05;0.35;;;13.30;99.90;;;;;;10328087;28;19929;-66
2022/09/16 05:49:29;;;;;;;3.72;0.40;;;13.40;99.90;;;;;;10324259;28;20100;-65
2022/09/16 05:54:31;;;;;;;4.95;0.32;;;13.40;99.90;;;;;;10327229;28;20107;-66
2022/09/16 05:59:33;;;;;;;2.70;0.40;;;13.40;99.90;;;;;;10330364;28;20137;-64
2022/09/16 06:04:34;;;;;;;1.77;0.50;;;13.40;99.90;;;;;;10328914;28;20126;-65
2022/09/16 06:09:36;;;;;;;4.88;0.40;;;13.50;99.90;;;;;;10334788;28;20157;-62
2022/09/16 06:14:37;;;;;;;3.90;0.28;;;13.50;99.90;;;;;;10326625;28;20077;-62
2022/09/16 06:19:39;;;;;;;2.85;0.35;;;13.60;99.90;;;;;;10334104;28;20058;-63
2022/09/16 06:24:41;;;;;;;1.40;0.30;;;13.70;99.90;;;;;;10333424;28;20140;-63
2022/09/16 06:29:42;;;;;;;3.05;0.30;;;13.80;99.90;;;;;;10328445;28;20124;-63
2022/09/16 06:34:44;;;;;;;10.35;0.47;;;13.90;99.90;;;;;;10337422;28;20073;-64
2022/09/16 06:39:46;;;;;;;6.25;0.40;;;14.00;99.90;;;;;;10350458;28;20082;-65
2022/09/16 06:44:47;;;;;;;3.22;0.40;;;14.10;99.90;;;;;;10335545;28;20043;-64
2022/09/16 06:49:49;;;;;;;9.95;0.43;;;14.20;99.90;;;;;;10320674;28;20081;-62
2022/09/16 06:54:51;;;;;;;2.45;0.40;;;14.30;99.90;;;;;;10354697;28;20050;-62
2022/09/16 06:59:52;;;;;;;3.97;0.40;;;14.20;99.90;;;;;;10337117;28;20133;-62
2022/09/16 07:04:54;;;;;;;10.30;0.50;;;14.30;99.90;;;;;;10334387;28;20128;-61
2022/09/16 07:09:56;;;;;;;5.55;0.30;;;14.50;99.90;;;;;;10334078;28;20052;-64
2022/09/16 07:14:57;;;;;;;2.10;0.30;;;14.60;99.90;;;;;;10331084;28;20057;-63
2022/09/16 07:19:59;;;;;;;1.95;0.30;;;14.50;99.90;;;;;;10329609;28;20042;-67
2022/09/16 07:25:01;;;;;;;1.60;0.30;;;14.60;99.90;;;;;;10331437;28;20084;-64
2022/09/16 07:30:02;;;;;;;3.25;0.30;;;14.60;99.90;;;;;;10327403;28;20062;-63
2022/09/16 07:35:09;;;;;;;4.45;0.50;;;14.70;99.90;;;;;;10332528;28;20049;-64
2022/09/16 07:40:12;;;;;;;3.42;0.40;;;14.70;99.90;;;;;;10332185;28;20042;-64
2022/09/16 07:45:14;;;;;;;1.58;0.22;;;15.20;99.90;;;;;;10330505;28;20042;-64
2022/09/16 07:50:16;;;;;;;0.63;0.22;;;15.20;99.90;;;;;;10329073;28;20810;-64
2022/09/16 07:55:18;;;;;;;0.90;0.20;;;15.10;99.90;;;;;;10328236;28;20073;-63
2022/09/16 08:00:20;;;;;;;1.85;0.22;;;15.10;99.90;;;;;;10331001;28;20046;-62
2022/09/16 08:05:22;;;;;;;3.45;0.40;;;15.10;99.90;;;;;;10330163;28;20133;-63
2022/09/16 08:10:24;;;;;;;3.50;0.40;;;15.20;99.90;;;;;;10330293;28;20037;-62
2022/09/16 08:15:31;;;;;;;2.70;0.40;;;15.30;99.90;;;;;;10335139;28;20061;-63
2022/09/16 08:20:32;;;;;;;2.22;0.30;;;15.10;99.90;;;;;;10328408;28;20763;-62
2022/09/16 08:25:35;;;;;;;1.42;0.30;;;15.10;99.90;;;;;;10329911;28;20499;-63
2022/09/16 08:30:36;;;;;;;2.10;0.30;;;15.20;99.90;;;;;;10321203;28;20124;-65
2022/09/16 08:35:38;;;;;;;6.97;0.20;;;15.10;99.90;;;;;;10326817;28;20086;-65
2022/09/16 08:40:50;;;;;;;1.92;0.20;;;15.10;99.90;;;;;;10317931;28;20042;-64
2022/09/16 08:45:52;;;;;;;3.22;0.25;;;15.30;99.90;;;;;;10309652;28;20160;-66
2022/09/16 08:50:57;;;;;;;1.10;0.10;;;15.60;99.90;;;;;;10324856;28;20053;-66
2022/09/16 08:56:03;;;;;;;2.15;0.20;;;15.60;99.90;;;;;;10298368;28;20045;-62
2022/09/16 09:01:32;;;;;;;4.38;0.95;;;15.90;99.90;;;;;;10331166;28;20046;-65
2022/09/16 09:06:49;;;;;;;0.90;0.10;;;15.90;99.90;;;;;;10325912;28;20137;-62
2022/09/16 09:12:26;;;;;;;1.13;0.10;;;15.90;99.90;;;;;;10326930;28;20263;-63
2022/09/16 09:17:49;;;;;;;2.15;0.28;;;16.20;99.90;;;;;;10321784;28;20054;-63
2022/09/16 09:23:15;;;;;;;2.83;0.20;;;16.30;99.90;;;;;;10335828;28;20078;-62
2022/09/16 09:28:38;;;;;;;4.30;0.10;;;16.50;99.90;;;;;;10335023;28;20081;-63
2022/09/16 09:33:52;;;;;;;0.93;0.15;;;16.20;99.90;;;;;;10338515;28;20496;-62
2022/09/16 09:39:29;;;;;;;0.45;0.03;;;16.00;99.90;;;;;;10329934;28;20037;-61
2022/09/16 09:44:45;;;;;;;0.63;0.10;;;16.00;99.90;;;;;;10329710;28;20053;-61
2022/09/16 09:49:55;;;;;;;2.70;0.20;;;15.70;99.90;;;;;;10332810;28;20054;-63
2022/09/16 09:55:13;;;;;;;2.67;0.10;;;15.80;99.90;;;;;;10330915;28;20087;-63
2022/09/16 10:00:20;;;;;;;1.45;0.10;;;16.10;99.90;;;;;;10334964;28;20081;-65
2022/09/16 10:05:25;;;;;;;1.83;0.10;;;16.10;99.90;;;;;;10325636;28;20097;-64
2022/09/16 10:10:31;;;;;;;2.20;0.05;;;16.00;99.90;;;;;;10336812;28;20038;-62
2022/09/16 10:15:33;;;;;;;2.87;0.10;;;15.90;99.90;;;;;;10333138;28;20555;-63
2022/09/16 10:20:37;;;;;;;1.35;0.10;;;15.80;99.90;;;;;;10350443;28;20050;-63
2022/09/16 10:25:40;;;;;;;0.80;0.10;;;15.90;99.90;;;;;;10334364;28;20062;-63
2022/09/16 10:30:47;;;;;;;0.22;0.00;;;15.90;99.90;;;;;;10347678;28;20069;-64
2022/09/16 10:35:55;;;;;;;;;;;16.00;99.90;;;;;;10335013;28;20042;-63
2022/09/16 10:41:07;;;;;;;2.70;0.10;;;16.00;99.90;;;;;;10330804;28;19968;-63
2022/09/16 10:46:14;;;;;;;0.15;0.03;;;16.00;99.90;;;;;;10338480;28;20150;-65
2022/09/16 10:51:24;;;;;;;;;;;16.00;99.90;;;;;;10324465;28;20128;-64
2022/09/16 10:56:29;;;;;;;0.70;0.10;;;16.10;99.90;;;;;;10336070;28;20024;-63
2022/09/16 11:01:49;;;;;;;1.15;0.10;;;16.10;99.90;;;;;;10334081;28;20125;-64
2022/09/16 11:07:09;;;;;;;0.90;0.30;;;16.20;99.90;;;;;;10329667;28;20050;-62
2022/09/16 11:12:36;;;;;;;3.47;0.10;;;16.60;99.90;;;;;;10328596;28;20160;-62
2022/09/16 11:17:56;;;;;;;;;;;16.50;99.90;;;;;;10333651;28;20065;-65
2022/09/16 11:23:31;;;;;;;0.65;0.10;;;16.90;99.90;;;;;;10347001;28;20287;-64
2022/09/16 11:29:10;;;;;;;5.45;0.65;;;17.40;99.90;;;;;;10338518;28;20136;-62
2022/09/16 11:34:40;;;;;;;3.30;0.10;;;17.40;99.90;;;;;;10335814;28;20058;-64
2022/09/16 11:40:10;;;;;;;0.70;0.08;;;17.30;99.90;;;;;;10339488;28;20050;-62
2022/09/16 11:45:40;;;;;;;0.10;0.10;;;17.70;99.90;;;;;;10333615;28;20052;-65
2022/09/16 11:51:23;;;;;;;2.90;0.08;;;17.20;99.90;;;;;;10327942;28;20133;-65
2022/09/16 11:56:33;;;;;;;0.00;0.00;;;16.70;99.90;;;;;;10317796;28;20444;-65
2022/09/16 12:01:47;;;;;;;5.57;0.15;;;16.40;99.90;;;;;;10328631;28;20137;-64
2022/09/16 12:06:59;;;;;;;1.00;0.10;;;16.20;99.90;;;;;;10329602;28;20082;-62
2022/09/16 12:12:18;;;;;;;0.82;0.10;;;16.20;99.90;;;;;;10337022;28;20096;-61
2022/09/16 12:17:24;;;;;;;2.17;0.08;;;16.40;99.90;;;;;;10327945;28;20520;-64
2022/09/16 12:22:50;;;;;;;1.20;0.17;;;16.40;99.90;;;;;;10330604;28;20492;-62
2022/09/16 12:28:01;;;;;;;0.30;0.10;;;16.30;99.90;;;;;;10330620;28;20080;-63
2022/09/16 12:33:20;;;;;;;0.00;0.00;;;16.20;99.90;;;;;;10335764;28;20149;-65
2022/09/16 12:38:22;;;;;;;2.08;0.25;;;16.40;99.90;;;;;;10334544;28;20137;-64
2022/09/16 12:43:49;;;;;;;1.17;0.10;;;16.70;99.90;;;;;;10336240;28;20116;-64
2022/09/16 12:49:28;;;;;;;0.63;0.10;;;16.90;99.90;;;;;;10335041;28;20050;-66
2022/09/16 12:54:51;;;;;;;0.10;0.10;;;17.10;99.90;;;;;;10329349;28;20046;-64
2022/09/16 13:00:12;;;;;;;0.00;0.00;;;17.30;99.90;;;;;;10335363;28;20122;-63
2022/09/16 13:05:18;;;;;;;0.15;0.15;;;18.00;99.90;;;;;;10340949;28;20081;-64
2022/09/16 13:10:37;;;;;;;;;;;18.00;99.90;;;;;;10329914;28;20057;-65
2022/09/16 13:16:02;;;;;;;0.20;0.10;;;18.60;99.90;;;;;;10325312;28;19922;-62
2022/09/16 13:21:27;;;;;;;0.20;0.10;;;18.80;99.90;;;;;;10332661;28;20520;-62
2022/09/16 13:26:40;;;;;;;1.00;0.10;;;18.20;99.90;;;;;;10331822;28;20132;-63
2022/09/16 13:31:48;;;;;;;1.95;0.10;;;18.50;99.90;;;;;;10327880;28;20128;-63
2022/09/16 13:36:50;;;;;;;0.57;0.00;;;18.80;99.80;;;;;;10328281;28;20033;-64
2022/09/16 13:41:52;;;;;;;1.25;0.30;;;19.00;99.10;;;;;;10332713;28;20455;-62
2022/09/16 13:46:54;;;;;;;1.05;0.03;;;19.20;98.20;;;;;;10332620;28;20068;-63
2022/09/16 13:51:55;;;;;;;0.00;0.00;;;19.30;99.50;;;;;;10333238;28;20121;-65
2022/09/16 13:57:12;;;;;;;4.32;0.10;;;19.20;97.20;;;;;;10336548;28;20137;-64
2022/09/16 14:02:26;;;;;;;0.20;0.00;;;18.90;98.10;;;;;;10325912;28;20084;-63
2022/09/16 14:07:48;;;;;;;0.93;0.10;;;18.60;97.90;;;;;;10332949;28;20050;-63
2022/09/16 14:13:06;;;;;;;0.30;0.00;;;18.70;98.30;;;;;;10327379;28;20153;-61
2022/09/16 14:18:12;;;;;;;1.25;0.00;;;19.10;97.20;;;;;;10331983;28;20047;-61
2022/09/16 14:23:17;;;;;;;0.10;0.00;;;19.20;96.80;;;;;;10330215;28;20050;-65
2022/09/16 14:28:21;;;;;;;1.65;0.00;;;19.50;95.80;;;;;;10331344;28;20124;-63
2022/09/16 14:33:34;;;;;;;0.30;0.00;;;19.10;96.90;;;;;;10332304;28;20088;-64
2022/09/16 14:38:42;;;;;;;0.65;0.15;;;18.50;97.90;;;;;;10338617;28;20141;-61
2022/09/16 14:44:14;;;;;;;2.42;0.00;;;18.30;99.20;;;;;;10333474;28;20077;-61
2022/09/16 14:49:17;;;;;;;0.40;0.10;;;18.20;98.60;;;;;;10332338;28;20060;-62
2022/09/16 14:54:21;;;;;;;0.55;0.10;;;18.60;99.20;;;;;;10334993;28;20081;-62
2022/09/16 14:59:29;;;;;;;0.65;0.00;;;19.10;98.20;;;;;;10334744;28;20069;-65
2022/09/16 15:04:35;;;;;;;4.65;0.10;;;19.00;97.20;;;;;;10333825;28;20046;-64
2022/09/16 15:10:00;;;;;;;0.47;0.10;;;18.50;97.50;;;;;;10335541;28;20108;-70
2022/09/16 15:15:23;;;;;;;0.15;0.08;;;17.40;99.90;;;;;;10334160;28;20161;-63
2022/09/16 15:20:29;;;;;;;2.47;0.10;;;16.40;99.90;;;;;;10330014;28;20108;-64
2022/09/16 15:25:33;;;;;;;0.10;0.00;;;15.80;99.90;;;;;;10337714;28;20514;-62
2022/09/16 15:30:45;;;;;;;1.40;0.10;;;15.30;99.90;;;;;;10329628;28;20053;-64
2022/09/16 15:35:51;;;;;;;0.10;0.00;;;15.00;99.90;;;;;;10331406;28;20049;-64
2022/09/16 15:41:13;;;;;;;2.70;0.00;;;14.80;99.90;;;;;;10333292;28;20070;-65
2022/09/16 15:46:22;;;;;;;0.50;0.00;;;14.50;99.90;;;;;;10339591;28;20054;-66
2022/09/16 15:51:30;;;;;;;0.30;0.00;;;14.40;99.90;;;;;;10332685;28;20060;-65
2022/09/16 15:56:40;;;;;;;1.95;0.10;;;14.40;99.90;;;;;;10334420;28;20168;-66
2022/09/16 16:01:49;;;;;;;0.00;0.00;;;14.40;99.90;;;;;;10334838;28;20766;-68
2022/09/16 16:07:00;;;;;;;1.48;0.00;;;14.20;99.90;;;;;;10330415;28;20080;-67
2022/09/16 16:12:11;;;;;;;1.10;0.10;;;14.10;99.90;;;;;;10335903;28;20116;-67
2022/09/16 16:17:20;;;;;;;0.47;0.00;;;14.40;99.90;;;;;;10333524;28;20412;-67
2022/09/16 16:22:22;;;;;;;0.20;0.00;;;14.50;99.90;;;;;;10334238;28;20050;-68
2022/09/16 16:27:25;;;;;;;0.00;0.00;;;14.80;99.90;;;;;;10329196;28;20069;-67
2022/09/16 16:32:27;;;;;;;3.25;0.00;;;14.90;99.90;;;;;;10337668;28;20129;-65
2022/09/16 16:37:28;;;;;;;0.05;0.00;;;15.00;99.90;;;;;;10335292;28;20096;-66
2022/09/16 16:42:47;;;;;;;0.00;0.00;;;15.00;99.90;;;;;;10330488;28;20098;-65
2022/09/16 16:47:49;;;;;;;0.45;0.00;;;14.90;99.90;;;;;;10335467;28;20080;-65
2022/09/16 16:52:52;;;;;;;0.80;0.10;;;14.80;99.90;;;;;;10335904;28;20558;-66
2022/09/16 16:57:53;;;;;;;0.10;0.00;;;14.60;99.90;;;;;;10328915;28;20045;-66
2022/09/16 17:02:55;;;;;;;0.35;0.00;;;14.50;99.90;;;;;;10333264;28;20444;-67
2022/09/16 17:07:57;;;;;;;0.15;0.00;;;14.40;99.90;;;;;;10331767;28;20049;-65
2022/09/16 17:12:58;;;;;;;0.73;0.08;;;14.30;99.90;;;;;;10334385;28;20136;-64
2022/09/16 17:18:00;;;;;;;3.35;0.10;;;14.20;99.90;;;;;;10336254;28;20073;-63
2022/09/16 17:23:02;;;;;;;0.82;0.20;;;14.20;99.90;;;;;;10330220;28;20551;-64
2022/09/16 17:28:03;;;;;;;1.85;0.57;;;14.00;99.90;;;;;;10328784;28;20137;-63
2022/09/16 17:33:05;;;;;;;2.30;0.00;;;13.90;99.90;;;;;;10340352;28;20066;-65
2022/09/16 17:38:07;;;;;;;0.10;0.00;;;13.80;99.90;;;;;;10332830;28;20696;-66
2022/09/16 17:43:08;;;;;;;1.35;0.00;;;13.70;99.90;;;;;;10326635;28;20212;-64
2022/09/16 17:48:10;;;;;;;0.08;0.00;;;13.60;99.90;;;;;;10327081;28;20125;-61
2022/09/16 17:53:12;;;;;;;0.38;0.00;;;13.50;99.90;;;;;;10329079;28;20081;-62
2022/09/16 17:58:14;;;;;;;1.08;0.00;;;13.50;99.90;;;;;;10308410;28;20053;-61
2022/09/16 18:03:16;;;;;;;0.95;0.20;;;13.40;99.90;;;;;;10330373;28;20729;-60
2022/09/16 18:08:17;;;;;;;0.43;0.00;;;13.20;99.90;;;;;;10330107;28;20136;-60
2022/09/16 18:13:19;;;;;;;1.88;0.10;;;13.00;99.90;;;;;;10334190;28;20046;-62
2022/09/16 18:18:21;;;;;;;0.50;0.10;;;12.90;99.90;;;;;;10331640;28;20088;-61
2022/09/16 18:23:23;;;;;;;3.20;0.68;;;12.80;99.90;;;;;;10332965;28;20449;-61
2022/09/16 18:28:25;;;;;;;1.92;0.20;;;12.70;99.90;;;;;;10337609;28;20048;-60
2022/09/16 18:33:26;;;;;;;2.35;0.30;;;12.60;99.90;;;;;;10350293;28;20125;-61
2022/09/16 18:38:29;;;;;;;0.98;0.22;;;12.60;99.90;;;;;;10330581;28;20459;-62
2022/09/16 18:43:31;;;;;;;0.52;0.10;;;12.50;99.90;;;;;;10334316;28;20501;-61
2022/09/16 18:48:32;;;;;;;0.15;0.00;;;12.50;99.90;;;;;;10338287;28;20149;-62
2022/09/16 18:53:34;;;;;;;0.65;0.20;;;12.40;99.90;;;;;;10331901;28;20408;-61
2022/09/16 18:58:35;;;;;;;0.13;0.08;;;12.50;99.90;;;;;;10335356;28;20046;-59
2022/09/16 19:03:37;;;;;;;0.68;0.10;;;12.40;99.90;;;;;;10335901;28;20319;-61
2022/09/16 19:08:39;;;;;;;0.00;0.00;;;12.40;99.90;;;;;;10337284;28;20088;-59
2022/09/16 19:13:41;;;;;;;1.35;0.10;;;12.40;99.90;;;;;;10335065;28;20133;-59
2022/09/16 19:18:43;;;;;;;1.25;0.10;;;12.30;99.90;;;;;;10340398;28;20151;-58
2022/09/16 19:23:47;;;;;;;0.73;0.08;;;12.20;99.90;;;;;;10335131;28;20128;-59
2022/09/16 19:28:49;;;;;;;1.02;0.10;;;12.20;99.90;;;;;;10333385;28;20058;-59
2022/09/16 19:33:50;;;;;;;0.52;0.10;;;12.20;99.90;;;;;;10336571;28;20387;-59
2022/09/16 19:38:53;;;;;;;0.60;0.20;;;12.10;99.90;;;;;;10330603;28;20080;-58
2022/09/16 19:43:57;;;;;;;2.10;0.30;;;12.10;99.90;;;;;;10334105;28;20467;-60
2022/09/16 19:49:00;;;;;;;0.95;0.05;;;12.00;99.90;;;;;;10333701;28;20042;-61
2022/09/16 19:54:02;;;;;;;9.55;3.40;;;11.90;99.90;;;;;;10331123;28;20129;-59
2022/09/16 19:59:03;;;;;;;19.50;6.68;;;11.90;99.90;;;;;;10328393;28;20066;-59
2022/09/16 20:04:07;;;;;;;2.97;0.22;;;11.80;99.90;;;;;;10334234;28;20146;-59
2022/09/16 20:09:10;;;;;;;2.35;0.10;;;11.80;99.90;;;;;;10325900;28;20512;-59
2022/09/16 20:14:19;;;;;;;0.20;0.10;;;11.70;99.90;;;;;;10330055;28;20054;-59
2022/09/16 20:19:20;;;;;;;3.95;0.10;;;11.80;99.90;;;;;;10329016;28;20412;-62
2022/09/16 20:24:23;;;;;;;0.50;0.30;;;11.70;99.90;;;;;;10335709;28;20128;-61
2022/09/16 20:29:25;;;;;;;1.75;0.40;;;11.70;99.90;;;;;;10329259;28;20560;-60
2022/09/16 20:34:27;;;;;;;3.22;0.15;;;11.60;99.90;;;;;;10330944;28;20104;-60
2022/09/16 20:39:29;;;;;;;0.88;0.10;;;11.50;99.90;;;;;;10333942;28;20132;-61
2022/09/16 20:44:31;;;;;;;2.35;0.20;;;11.50;99.90;;;;;;10329835;28;20137;-60
2022/09/16 20:49:32;;;;;;;0.55;0.15;;;11.50;99.90;;;;;;10331913;28;20156;-59
2022/09/16 20:54:34;;;;;;;2.22;0.17;;;11.50;99.90;;;;;;10330824;28;20137;-59
2022/09/16 20:59:36;;;;;;;1.33;0.17;;;11.50;99.90;;;;;;10330508;28;20054;-60
2022/09/16 21:04:37;;;;;;;3.63;0.85;;;11.50;99.90;;;;;;10333725;28;20046;-60
2022/09/16 21:09:39;;;;;;;1.00;0.50;;;11.60;99.90;;;;;;10330930;28;20121;-59
2022/09/16 21:14:41;;;;;;;1.67;0.70;;;11.60;99.90;;;;;;10333985;28;20054;-60
2022/09/16 21:19:42;;;;;;;11.88;0.95;;;11.60;99.90;;;;;;10330617;28;20140;-60
2022/09/16 21:24:44;;;;;;;4.28;0.70;;;11.60;99.90;;;;;;10339605;28;20060;-61
2022/09/16 21:29:47;;;;;;;3.80;0.90;;;11.60;99.90;;;;;;10333526;28;20124;-60
2022/09/16 21:34:49;;;;;;;4.43;0.60;;;11.60;99.90;;;;;;10344177;28;20624;-60
2022/09/16 21:39:50;;;;;;;2.50;0.57;;;11.60;99.90;;;;;;10339349;28;20060;-59
2022/09/16 21:44:56;;;;;;;2.00;0.43;;;11.60;99.90;;;;;;10337564;28;20053;-59
2022/09/16 21:49:59;;;;;;;4.25;0.60;;;11.60;99.90;;;;;;10338782;28;20124;-59
2022/09/16 21:55:01;;;;;;;4.15;0.38;;;11.70;99.90;;;;;;10332669;28;20485;-59
2022/09/16 22:00:04;;;;;;;4.70;0.30;;;11.60;99.90;;;;;;10342528;28;20080;-59
2022/09/16 22:05:06;;;;;;;3.03;0.30;;;11.60;99.90;;;;;;10334836;28;20133;-59
2022/09/16 22:10:08;;;;;;;3.00;0.73;;;11.60;99.90;;;;;;10338160;28;20478;-58
2022/09/16 22:15:09;;;;;;;2.40;0.70;;;11.60;99.90;;;;;;10334603;28;20129;-58
2022/09/16 22:20:11;;;;;;;5.22;0.70;;;11.50;99.90;;;;;;10332901;28;20135;-60
2022/09/16 22:25:13;;;;;;;2.03;0.45;;;11.50;99.90;;;;;;10340617;28;20133;-59
2022/09/16 22:30:15;;;;;;;4.10;0.75;;;11.50;99.90;;;;;;10333689;28;20107;-60
2022/09/16 22:35:16;;;;;;;5.07;0.65;;;11.40;99.90;;;;;;10336788;28;20061;-59
2022/09/16 22:40:19;;;;;;;5.68;0.52;;;11.30;99.90;;;;;;10338439;28;20096;-59
2022/09/16 22:45:21;;;;;;;2.80;0.60;;;11.30;99.90;;;;;;10334935;28;20055;-60
2022/09/16 22:50:23;;;;;;;1.42;0.68;;;11.30;99.90;;;;;;10336615;28;20042;-59
2022/09/16 22:55:24;;;;;;;5.28;0.70;;;11.30;99.90;;;;;;10337579;28;20074;-59
2022/09/16 23:00:26;;;;;;;1.42;1.08;;;11.30;99.90;;;;;;10334648;28;20519;-59
2022/09/16 23:05:28;;;;;;;2.78;0.65;;;11.30;99.90;;;;;;10333985;28;20546;-59
2022/09/16 23:10:29;;;;;;;4.38;0.80;;;11.30;99.90;;;;;;10333711;28;20135;-61
2022/09/16 23:15:33;;;;;;;5.55;0.80;;;11.30;99.90;;;;;;10333707;28;20133;-58
2022/09/16 23:20:35;;;;;;;2.55;0.80;;;11.30;99.90;;;;;;10334761;28;20146;-59
2022/09/16 23:25:37;;;;;;;4.70;0.80;;;11.20;99.90;;;;;;10331710;28;20548;-60
2022/09/16 23:30:38;;;;;;;4.75;0.60;;;11.20;99.90;;;;;;10331320;28;20449;-60
2022/09/16 23:35:49;;;;;;;5.40;0.77;;;11.10;99.90;;;;;;10333433;28;20129;-60
2022/09/16 23:40:50;;;;;;;3.53;0.47;;;11.10;99.90;;;;;;10317957;28;20073;-60
2022/09/16 23:45:52;;;;;;;1.92;0.65;;;11.00;99.90;;;;;;10334206;28;20088;-60
2022/09/16 23:50:54;;;;;;;3.25;0.63;;;11.00;99.90;;;;;;10333344;28;20433;-59
2022/09/16 23:55:56;;;;;;;5.40;0.85;;;11.00;99.90;;;;;;10331427;28;20072;-59
